Flight Track Log - Related Links

Times and Time Zones

All times are in EDT time to prevent confusion due to time zone crossing. See the SWA1802 flight status page for this flight to view local times or setup timezone preferences in your user account.

Time Position Orientation Groundspeed Altitude Reporting Facility
EDT Latitude Longitude Course Direction KTS MPH feet Rate Location/Type
Wed 06:26:28 PM 41.8167 -87.7500 236° Southwest 200 230 2,200  Level Chicago TRACON
Wed 06:27:28 PM 41.7833 -87.8167 236° Southwest 235 270 3,000 1,400 Climbing Chicago TRACON
Wed 06:28:28 PM 41.7333 -87.8833 225° Southwest 254 292 5,000 2,500 Climbing Chicago TRACON
Wed 06:29:28 PM 41.7333 -87.9667 270° West 265 305 8,000 2,467 Climbing Chicago TRACON
Wed 06:29:58 PM 41.7506 -87.9978 307° West 268 308 8,700 2,674 Climbing Chicago Center
Wed 06:31:00 PM 41.7878 -88.1142 293° West 293 337 12,100 2,274 Climbing Chicago Center
Wed 06:32:02 PM 41.7831 -88.2217 267° West 295 339 13,400 912 Climbing Chicago Center
Wed 06:33:05 PM 41.7775 -88.3303 266° West 296 341 14,000 480 Climbing Chicago Center
Wed 06:34:07 PM 41.7708 -88.4394 265° West 299 344 14,400 726 Climbing Chicago Center
Wed 06:35:09 PM 41.7631 -88.5731 266° West 302 348 15,500 1,258 Climbing Chicago Center
Wed 06:36:11 PM 41.7569 -88.6864 266° West 308 354 17,000 1,694 Climbing Chicago Center
Wed 06:37:13 PM 41.7508 -88.8022 266° West 313 360 19,000 1,452 Climbing Chicago Center
Wed 06:38:15 PM 41.7369 -88.9286 262° West 346 398 20,000 1,065 Climbing Chicago Center
Wed 06:39:17 PM 41.7033 -89.0667 252° West 385 443 21,200 1,597 Climbing Chicago Center
Wed 06:40:19 PM 41.6642 -89.2439 254° West 413 475 23,300 1,887 Climbing Chicago Center
Wed 06:41:21 PM 41.6356 -89.3964 256° West 427 491 25,100 1,452 Climbing Chicago Center
Wed 06:42:23 PM 41.6081 -89.5569 257° West 439 505 26,300 1,161 Climbing Chicago Center
Wed 06:43:25 PM 41.5808 -89.7197 257° West 449 517 27,500 1,597 Climbing Chicago Center
Wed 06:44:27 PM 41.5531 -89.8822 257° West 450 518 29,600 1,632 Climbing Chicago Center
Wed 06:45:30 PM 41.5272 -90.0392 258° West 438 504 30,900 1,392 Climbing Chicago Center
Wed 06:46:32 PM 41.4942 -90.2292 257° West 440 506 32,500 1,645 Climbing Chicago Center
Wed 06:47:34 PM 41.4672 -90.3825 257° West 428 493 34,300 1,210 Climbing Chicago Center
Wed 06:48:36 PM 41.4422 -90.5314 257° West 415 478 35,000 339 Climbing Chicago Center
Wed 06:49:38 PM 41.4139 -90.6842 256° West 425 489 35,000  Level Chicago Center
Wed 06:50:40 PM 41.3881 -90.8336 257° West 418 481 35,000  Level Chicago Center
Wed 06:51:42 PM 41.3389 -91.0081 249° West 425 489 35,000  Level Chicago Center
Wed 06:52:44 PM 41.2756 -91.1383 237° Southwest 422 486 35,000  Level Chicago Center
Wed 06:53:46 PM 41.2133 -91.2711 238° Southwest 425 489 35,000 145 Level Chicago Center
Wed 06:54:48 PM 41.1506 -91.4053 238° Southwest 428 493 35,300 484 Climbing Chicago Center
Wed 06:55:50 PM 41.1250 -91.5556 257° West 422 486 36,000 336 Climbing Chicago Center
Wed 06:56:53 PM 41.1008 -91.7289 260° West 425 489 36,000  Level Chicago Center
Wed 06:57:55 PM 41.0786 -91.8811 259° West 426 490 36,000  Level Chicago Center
Wed 06:58:56 PM 41.0572 -92.0331 259° West 425 489 36,000  Level Chicago Center
Wed 06:59:58 PM 41.0358 -92.1850 259° West 425 489 36,000  Level Chicago Center
Wed 07:01:01 PM 41.0089 -92.3672 259° West 426 490 36,000  Level Chicago Center
Wed 07:02:03 PM 40.9853 -92.5194 258° West 426 490 36,000  Level Chicago Center
Wed 07:03:05 PM 40.9625 -92.6706 259° West 425 489 36,000  Level Chicago Center
Wed 07:04:07 PM 40.9400 -92.8222 259° West 426 490 36,000  Level Chicago Center
Wed 07:05:09 PM 40.9122 -93.0025 259° West 423 487 36,000  Level Chicago Center
Wed 07:06:11 PM 40.8883 -93.1567 258° West 430 495 36,000  Level Chicago Center
Wed 07:07:13 PM 40.8644 -93.3092 258° West 430 495 36,000  Level Chicago Center
Wed 07:08:15 PM 40.8403 -93.4597 258° West 426 490 36,000  Level Chicago Center
Wed 07:09:17 PM 40.8111 -93.6431 258° West 429 494 36,000  Level Chicago Center
Wed 07:10:19 PM 40.7864 -93.7944 258° West 426 490 36,000  Level Chicago Center
Wed 07:11:21 PM 40.7617 -93.9467 258° West 427 491 36,000  Level Chicago Center
Wed 07:12:24 PM 40.7364 -94.0986 258° West 427 491 36,000  Level Chicago Center
Wed 07:13:26 PM 40.7117 -94.2489 258° West 424 488 36,000  Level Chicago Center
Wed 07:14:28 PM 40.6828 -94.4308 258° West 426 490 36,000  Level Chicago Center
Wed 07:15:56 PM 40.6417 -94.6517 256° West 424 488 36,000  Level Minneapolis Center
Wed 07:16:59 PM 40.6161 -94.8019 257° West 421 484 36,000  Level Minneapolis Center
Wed 07:18:01 PM 40.5911 -94.9525 258° West 420 483 36,000  Level Minneapolis Center
Wed 07:19:03 PM 40.5653 -95.1019 257° West 419 482 36,000  Level Minneapolis Center
Wed 07:20:05 PM 40.5394 -95.2517 257° West 419 482 36,000  Level Minneapolis Center
Wed 07:21:07 PM 40.5081 -95.4314 257° West 419 482 36,000  Level Minneapolis Center
Wed 07:22:09 PM 40.4819 -95.5800 257° West 417 480 36,000  Level Minneapolis Center
Wed 07:23:11 PM 40.4550 -95.7283 257° West 416 479 36,000  Level Minneapolis Center
Wed 07:24:13 PM 40.4283 -95.8772 257° West 417 480 36,000  Level Minneapolis Center
Wed 07:25:15 PM 40.4014 -96.0253 257° West 416 479 36,000  Level Minneapolis Center
Wed 07:26:17 PM 40.3739 -96.1753 257° West 419 482 36,000  Level Minneapolis Center
Wed 07:27:19 PM 40.3461 -96.3269 257° West 425 489 36,000  Level Minneapolis Center
Wed 07:28:21 PM 40.3119 -96.5072 256° West 424 488 36,000  Level Minneapolis Center
Wed 07:29:23 PM 40.2836 -96.6575 256° West 424 488 36,000  Level Minneapolis Center
Wed 07:30:26 PM 40.2556 -96.8064 256° West 422 486 36,000  Level Minneapolis Center
Wed 07:31:28 PM 40.2267 -96.9550 256° West 422 486 36,000  Level Minneapolis Center
Wed 07:32:30 PM 40.1978 -97.1056 256° West 423 487 36,000  Level Minneapolis Center
Wed 07:33:32 PM 40.1697 -97.2547 256° West 424 488 36,000  Level Minneapolis Center
Wed 07:34:34 PM 40.1381 -97.4161 256° West 423 487 36,000  Level Minneapolis Center
Wed 07:35:36 PM 40.1086 -97.5647 256° West 423 487 36,000  Level Minneapolis Center
Wed 07:36:38 PM 40.0778 -97.7153 255° West 426 490 36,000  Level Minneapolis Center
Wed 07:37:40 PM 40.0425 -97.8958 256° West 427 491 36,000  Level Minneapolis Center
Wed 07:38:42 PM 40.0117 -98.0453 255° West 426 490 36,000  Level Minneapolis Center
Wed 07:39:44 PM 39.9817 -98.1958 255° West 427 491 36,000  Level Minneapolis Center
Wed 07:40:47 PM 39.9514 -98.3439 255° West 425 489 36,000  Level Minneapolis Center
Wed 07:41:49 PM 39.9197 -98.4928 255° West 425 489 36,000  Level Minneapolis Center
Wed 07:42:51 PM 39.8894 -98.6422 255° West 425 489 36,000  Level Minneapolis Center
Wed 07:43:53 PM 39.8583 -98.7903 255° West 424 488 36,000  Level Minneapolis Center
Wed 07:44:26 PM 39.8394 -98.8808 255° West 426 490 36,000  Level Denver Center
Wed 07:45:29 PM 39.8075 -99.0297 254° West 428 493 36,000  Level Denver Center
Wed 07:46:31 PM 39.7694 -99.2078 255° West 426 490 36,000  Level Denver Center
Wed 07:47:45 PM 39.7375 -99.3569 254° West 427 491 36,000  Level Denver Center
Wed 07:48:47 PM 39.7000 -99.5342 255° West 424 488 36,000  Level Denver Center
Wed 07:49:49 PM 39.6675 -99.6817 254° West 425 489 36,000  Level Denver Center
Wed 07:50:51 PM 39.6347 -99.8272 254° West 421 484 36,000  Level Denver Center
Wed 07:51:53 PM 39.6008 -99.9808 254° West 420 483 36,000  Level Denver Center
Wed 07:52:55 PM 39.5650 -100.1450 254° West 421 484 36,000  Level Denver Center
Wed 07:53:57 PM 39.5336 -100.2842 254° West 422 486 36,000  Level Denver Center
Wed 07:54:59 PM 39.4967 -100.4494 254° West 425 489 36,000  Level Denver Center
Wed 07:56:13 PM 39.4639 -100.5894 253° West 425 489 36,000  Level Denver Center
Wed 07:57:16 PM 39.4208 -100.7783 254° West 427 491 36,000  Level Denver Center
Wed 07:58:18 PM 39.3881 -100.9211 253° West 431 496 36,000  Level Denver Center
Wed 07:59:20 PM 39.3497 -101.0878 253° West 432 497 36,000  Level Denver Center
Wed 08:00:22 PM 39.3156 -101.2311 253° West 435 501 36,000  Level Denver Center
Wed 08:01:24 PM 39.2769 -101.3958 253° West 429 494 36,000  Level Denver Center
Wed 08:02:26 PM 39.2447 -101.5375 254° West 430 495 36,000  Level Denver Center
Wed 08:03:28 PM 39.2044 -101.7003 252° West 427 491 36,000  Level Denver Center
Wed 08:04:30 PM 39.1706 -101.8383 252° West 425 489 36,000  Level Denver Center
Wed 08:05:32 PM 39.1319 -101.9981 253° West 421 484 36,000  Level Denver Center
Wed 08:06:35 PM 39.0992 -102.1372 253° West 423 487 36,000  Level Denver Center
Wed 08:07:37 PM 39.0592 -102.3000 252° West 428 493 36,000  Level Denver Center
Wed 08:08:39 PM 39.0256 -102.4381 253° West 426 490 36,000  Level Denver Center
Wed 08:09:41 PM 38.9908 -102.5772 252° West 428 493 36,000  Level Denver Center
Wed 08:10:43 PM 38.9506 -102.7375 252° West 424 488 36,000  Level Denver Center
Wed 08:11:45 PM 38.9128 -102.8883 252° West 422 486 36,000  Level Denver Center
Wed 08:12:47 PM 38.8769 -103.0294 252° West 417 480 36,000  Level Denver Center
Wed 08:13:49 PM 38.8408 -103.1706 252° West 417 480 36,000  Level Denver Center
Wed 08:14:51 PM 38.8047 -103.3128 252° West 420 483 36,000  Level Denver Center
Wed 08:15:53 PM 38.7622 -103.4803 252° West 421 484 36,000  Level Denver Center
Wed 08:16:55 PM 38.7286 -103.6133 252° West 414 476 36,000  Level Denver Center
Wed 08:17:57 PM 38.6872 -103.7694 251° West 416 479 36,000  Level Denver Center
Wed 08:18:59 PM 38.6522 -103.9044 252° West 419 482 36,000  Level Denver Center
Wed 08:20:01 PM 38.6167 -104.0403 252° West 421 484 36,000  Level Denver Center
Wed 08:21:03 PM 38.5772 -104.1886 251° West 420 483 36,000  Level Denver Center
Wed 08:22:05 PM 38.5403 -104.3292 251° West 418 481 36,000  Level Denver Center
Wed 08:23:07 PM 38.5025 -104.4694 251° West 418 481 36,000  Level Denver Center
Wed 08:24:09 PM 38.4581 -104.6372 251° West 417 480 36,000  Level Denver Center
Wed 08:25:12 PM 38.4194 -104.7769 251° West 417 480 36,000  Level Denver Center
Wed 08:26:13 PM 38.3819 -104.9150 251° West 414 476 36,000  Level Denver Center
Wed 08:27:15 PM 38.3447 -105.0542 251° West 415 478 36,000  Level Denver Center
Wed 08:28:17 PM 38.3061 -105.1942 251° West 414 476 36,000  Level Denver Center
Wed 08:29:19 PM 38.2633 -105.3500 251° West 417 480 36,000 -48 Level Denver Center
Wed 08:30:21 PM 38.2261 -105.4819 250° West 416 479 35,900  Descending Denver Center
Wed 08:31:24 PM 38.1831 -105.6358 250° West 414 476 36,000 48 Climbing Denver Center
Wed 08:32:26 PM 38.1464 -105.7689 251° West 416 479 36,000  Level Denver Center
Wed 08:33:28 PM 38.1028 -105.9222 250° West 414 476 36,000  Level Denver Center
Wed 08:34:30 PM 38.0667 -106.0500 250° West 403 464 36,000  Level Denver Center
Wed 08:35:32 PM 38.0233 -106.1986 250° West 402 463 36,000  Level Denver Center
Wed 08:36:34 PM 37.9867 -106.3264 250° West 403 464 36,000  Level Denver Center
Wed 08:37:36 PM 37.9447 -106.4744 250° West 399 459 36,000  Level Denver Center
Wed 08:38:38 PM 37.9061 -106.6067 250° West 399 459 36,000  Level Denver Center
Wed 08:39:40 PM 37.8697 -106.7325 250° West 398 458 36,000  Level Denver Center
Wed 08:40:42 PM 37.8253 -106.8825 249° West 408 470 36,000  Level Denver Center
Wed 08:41:44 PM 37.7869 -107.0122 250° West 406 467 36,000  Level Denver Center
Wed 08:42:46 PM 37.7431 -107.1606 250° West 404 465 36,000  Level Denver Center
Wed 08:43:48 PM 37.7058 -107.2872 250° West 403 464 36,000  Level Denver Center
Wed 08:44:50 PM 37.6614 -107.4353 249° West 405 466 36,000  Level Denver Center
Wed 08:45:52 PM 37.6239 -107.5636 250° West 406 467 36,000  Level Denver Center
Wed 08:47:06 PM 37.5797 -107.7094 249° West 403 464 36,000  Level Denver Center
Wed 08:48:09 PM 37.5350 -107.8547 249° West 399 459 36,000  Level Denver Center
Wed 08:49:11 PM 37.4917 -107.9981 249° West 395 455 36,000  Level Denver Center
Wed 08:50:25 PM 37.4547 -108.1222 249° West 395 455 36,000  Level Denver Center
Wed 08:51:39 PM 37.4028 -108.2875 248° West 398 458 36,000  Level Denver Center
Wed 08:52:42 PM 37.3519 -108.4525 249° West 397 457 36,000  Level Denver Center
Wed 08:53:44 PM 37.3142 -108.5736 249° West 391 450 36,000  Level Denver Center
Wed 08:54:46 PM 37.2692 -108.7158 248° West 392 451 36,000  Level Denver Center
Wed 08:55:48 PM 37.2311 -108.8367 248° West 391 450 36,000  Level Denver Center
Wed 08:56:50 PM 37.1867 -108.9786 249° West 393 452 36,000  Level Denver Center
Wed 08:58:00 PM 37.1277 -109.1229 243° Southwest  Level FlightAware Approximate
Wed 08:58:54 PM 37.1017 -109.2444 243° Southwest 399 459 36,000  Level Denver Center
Wed 08:59:57 PM 37.0642 -109.3656 249° West 394 453 36,000  Level Denver Center
Wed 09:01:11 PM 37.0178 -109.5086 248° West 398 458 36,000  Level Denver Center
Wed 09:02:13 PM 36.9642 -109.6744 248° West 402 463 36,000  Level Denver Center
Wed 09:03:15 PM 36.9256 -109.7936 248° West 392 451 36,000  Level Denver Center
Wed 09:04:17 PM 36.8853 -109.9144 247° West 394 453 36,000  Level Denver Center
Wed 09:05:19 PM 36.8394 -110.0547 248° West 393 452 36,000  Level Denver Center
Wed 09:06:21 PM 36.7986 -110.1806 248° West 391 450 36,000  Level Denver Center
Wed 09:07:23 PM 36.7567 -110.3069 248° West 393 452 36,000  Level Denver Center
Wed 09:08:25 PM 36.7142 -110.4336 247° West 395 455 36,000  Level Denver Center
Wed 09:09:27 PM 36.6619 -110.5867 247° West 399 459 36,000  Level Denver Center
Wed 09:10:29 PM 36.6219 -110.7144 249° West 398 458 36,000  Level Denver Center
Wed 09:11:31 PM 36.5797 -110.8403 247° West 395 455 36,000  Level Denver Center
Wed 09:12:33 PM 36.5367 -110.9661 247° West 395 455 36,000  Level Denver Center
Wed 09:13:35 PM 36.4925 -111.0922 246° West 396 456 36,000  Level Denver Center
Wed 09:14:37 PM 36.4500 -111.2192 247° West 398 458 36,000  Level Denver Center
Wed 09:15:39 PM 36.4075 -111.3433 247° West 393 452 36,000  Level Denver Center
Wed 09:16:41 PM 36.3514 -111.4925 245° Southwest 395 455 36,000  Level Denver Center
Wed 09:17:43 PM 36.3053 -111.6194 246° West 400 460 36,000  Level Denver Center
Wed 09:18:46 PM 36.2592 -111.7442 245° Southwest 399 459 36,000  Level Denver Center
Wed 09:19:49 PM 36.2122 -111.8686 245° Southwest 396 456 36,000  Level Los Angeles Center
Wed 09:20:51 PM 36.1617 -112.0072 246° West 402 463 36,000  Level Los Angeles Center
Wed 09:21:53 PM 36.1153 -112.1311 245° Southwest 401 461 36,000  Level Los Angeles Center
Wed 09:22:55 PM 36.0692 -112.2556 245° Southwest 401 461 36,000  Level Los Angeles Center
Wed 09:23:57 PM 36.0169 -112.3936 245° Southwest 396 456 36,000  Level Los Angeles Center
Wed 09:24:59 PM 35.9694 -112.5181 245° Southwest 399 459 36,000  Level Los Angeles Center
Wed 09:26:00 PM 35.9203 -112.6494 245° Southwest 399 459 36,000  Level Los Angeles Center
Wed 09:27:02 PM 35.8731 -112.7731 245° Southwest 401 461 36,000  Level Los Angeles Center
Wed 09:28:04 PM 35.8269 -112.8958 245° Southwest 399 459 36,000  Level Los Angeles Center
Wed 09:29:06 PM 35.7800 -113.0178 245° Southwest 397 457 36,000  Level Los Angeles Center
Wed 09:30:08 PM 35.7236 -113.1644 245° Southwest 400 460 36,000  Level Los Angeles Center
Wed 09:31:10 PM 35.6769 -113.2847 244° Southwest 398 458 36,000  Level Los Angeles Center
Wed 09:32:12 PM 35.6289 -113.4097 245° Southwest 404 465 36,000  Level Los Angeles Center
Wed 09:33:13 PM 35.5819 -113.5325 245° Southwest 403 464 36,000  Level Los Angeles Center
Wed 09:34:15 PM 35.5336 -113.6544 244° Southwest 403 464 36,000  Level Los Angeles Center
Wed 09:35:17 PM 35.4753 -113.8017 244° Southwest 404 465 36,000  Level Los Angeles Center
Wed 09:36:19 PM 35.4239 -113.9328 244° Southwest 405 466 36,000  Level Los Angeles Center
Wed 09:37:21 PM 35.3739 -114.0556 243° Southwest 403 464 36,000  Level Los Angeles Center
Wed 09:38:23 PM 35.3256 -114.1794 244° Southwest 403 464 36,000  Level Los Angeles Center
Wed 09:39:25 PM 35.2769 -114.3025 244° Southwest 401 461 36,000  Level Los Angeles Center
Wed 09:40:27 PM 35.2267 -114.4278 244° Southwest 407 468 36,000  Level Los Angeles Center
Wed 09:41:29 PM 35.1772 -114.5514 244° Southwest 407 468 36,000  Level Los Angeles Center
Wed 09:42:30 PM 35.1267 -114.6764 244° Southwest 409 471 36,000  Level Los Angeles Center
Wed 09:43:32 PM 35.0658 -114.8247 243° Southwest 407 468 36,000  Level Los Angeles Center
Wed 09:44:34 PM 35.0161 -114.9500 244° Southwest 410 472 36,000  Level Los Angeles Center
Wed 09:45:36 PM 34.9647 -115.0753 243° Southwest 411 473 36,000  Level Los Angeles Center
Wed 09:46:38 PM 34.9139 -115.1992 243° Southwest 408 470 36,000  Level Los Angeles Center
Wed 09:47:40 PM 34.8636 -115.3231 244° Southwest 408 470 36,000  Level Los Angeles Center
Wed 09:48:42 PM 34.8131 -115.4472 244° Southwest 408 470 36,000  Level Los Angeles Center
Wed 09:49:44 PM 34.7561 -115.5836 243° Southwest 409 471 36,000  Level Los Angeles Center
Wed 09:50:45 PM 34.7039 -115.7081 243° Southwest 413 475 36,000  Level Los Angeles Center
Wed 09:51:47 PM 34.6514 -115.8331 243° Southwest 415 478 36,000  Level Los Angeles Center
Wed 09:52:49 PM 34.6000 -115.9578 243° Southwest 414 476 36,000  Level Los Angeles Center
Wed 09:53:51 PM 34.5461 -116.0825 242° Southwest 416 479 36,000  Level Los Angeles Center
Wed 09:54:53 PM 34.4942 -116.2083 243° Southwest 416 479 36,000 -1,268 Level Los Angeles Center
Wed 09:55:54 PM 34.4319 -116.3547 243° Southwest 408 470 33,400 -2,439 Descending Los Angeles Center
Wed 09:56:56 PM 34.3789 -116.4786 243° Southwest 412 474 31,000 -2,323 Descending Los Angeles Center
Wed 09:57:58 PM 34.3281 -116.5969 243° Southwest 399 459 28,600 -2,274 Descending Los Angeles Center
Wed 09:59:00 PM 34.2783 -116.7136 243° Southwest 390 449 26,300 -2,146 Descending Los Angeles Center
Wed 10:00:01 PM 34.2292 -116.8267 242° Southwest 382 440 24,200 -2,049 Descending Los Angeles Center
Wed 10:01:03 PM 34.1817 -116.9364 242° Southwest 370 426 22,100 -1,935 Descending Los Angeles Center
Wed 10:02:05 PM 34.1361 -117.0422 243° Southwest 358 412 20,200 -2,195 Descending Los Angeles Center
Wed 10:03:06 PM 34.0878 -117.1553 243° Southwest 342 394 17,600 -2,244 Descending Los Angeles Center
Wed 10:04:08 PM 34.0461 -117.2636 245° Southwest 341 392 15,600 -1,839 Descending Los Angeles Center
Wed 10:05:10 PM 34.0356 -117.3747 263° West 334 384 13,800 -1,210 Descending Los Angeles Center
Wed 10:06:12 PM 34.0286 -117.4767 265° West 310 357 13,100 -1,180 Descending Los Angeles Center
Wed 10:07:12 PM 34.0333 -117.5833 273° West 283 326 11,400 -1,500 Descending Southern California TRACON
Wed 10:08:12 PM 34.0167 -117.6833 259° West 255 293 10,100 -1,150 Descending Southern California TRACON
Wed 10:09:12 PM 34.0167 -117.7667 270° West 273 314 9,100 -1,143 Descending Southern California TRACON
Wed 10:10:18 PM 34.0000 -117.8667 259° West 275 316 7,700 -1,250 Descending Southern California TRACON
Wed 10:11:12 PM 34.0000 -117.9500 270° West 273 314 6,600 -1,105 Descending Southern California TRACON
Wed 10:12:12 PM 33.9833 -118.0333 256° West 270 311 5,600 -1,000 Descending Southern California TRACON
Wed 10:13:12 PM 33.9833 -118.1167 270° West 253 291 4,600 -1,150 Descending Southern California TRACON
Wed 10:14:12 PM 33.9667 -118.2000 256° West 230 265 3,300 -1,200 Descending Southern California TRACON
Wed 10:15:12 PM 33.9667 -118.2667 270° West 204 235 2,200 -950 Descending Southern California TRACON
Wed 10:16:12 PM 33.9667 -118.3333 270° West 156 180 1,400 -810 Descending Southern California TRACON
Wed 10:17:18 PM 33.9500 -118.3833 248° West 146 168 500 -553 Descending Southern California TRACON
Wed 10:18:33 PM 33.9494 -118.4319 269° West 152 175 100 -320 Descending Los Angeles Center
Wed 10:20:00 PM 33.9425 -118.4081 259° West  Level Estimated

Login

Don't have an account? Register now (free) for customized features, flight alerts, and more!